MSC Bremen — A8LK7 — position and weather

sailwx.info

Track history (hours):
 
Tides and Currents Weather Stations Pressure Air Temp Water Temp Dewpoint Dewpoint Depression Visibility Wind Speed Wind Dir Waves Ship Positions

MSC Bremen

Last reported at 2014-Oct-21 14:22 UTC. Time now 2014-Oct-21 15:18 UTC.
Position S 23°55' W 046°21'.

Length 294 m; ; draft 13.7 m.

Type: Ship (hazmat cat A). MMSI: 636091270.

Date/timePositionNaut miles runAvg speedWind from/ knotsBaromVisibWave heightAir tempDewpointWater temp
2014-Oct-21 14:22S 23°55' W 046°21'0 0.0
2014-Oct-21 13:28S 23°55' W 046°21'0 0.0
2014-Oct-21 12:22S 23°55' W 046°21'0 0.0
2014-Oct-21 11:07S 23°55' W 046°21'0 0.0
2014-Oct-21 10:13S 23°55' W 046°21'0 0.0
2014-Oct-21 09:22S 23°55' W 046°21'0 0.0
2014-Oct-21 08:28S 23°55' W 046°21'0 0.0
2014-Oct-21 06:22S 23°55' W 046°21'0 0.0
2014-Oct-21 05:31S 23°55' W 046°21'0 0.0
2014-Oct-21 04:10S 23°55' W 046°21'0 0.0
2014-Oct-21 03:28S 23°55' W 046°21'0 0.0
2014-Oct-21 00:28S 23°55' W 046°21'0 0.0
2014-Oct-20 22:10S 23°55' W 046°21'1 2.3
2014-Oct-20 21:33S 23°56' W 046°20'6 5.5
2014-Oct-20 20:33S 24°01' W 046°21'9 9.6
2014-Oct-20 19:33S 24°10' W 046°24'9 1.7
2014-Oct-20 14:16S 24°19' W 046°22'4 0.5
2014-Oct-20 07:06S 24°23' W 046°23'32412.9
2014-Oct-19 06:00S 22°24' W 040°54'46719.4 050 / 201012.0 5.4 1.023.021.5
2014-Oct-18 06:00S 15°30' W 037°06'43218.0 080 / 161016.010.8 1.025.023.5
2014-Oct-17 06:00S 08°48' W 034°24'71715.2 130 / 171015.0 5.4 2.024.021.0
2014-Oct-15 07:00N 01°06' W 041°06'   120 / 141013.0 5.4 1.524.021.0
Track history (hours):
 
Tides and Currents Weather Stations Pressure Air Temp Water Temp Dewpoint Dewpoint Depression Visibility Wind Speed Wind Dir Waves Ship Positions

MSC Bremen

Last reported at 2014-Oct-21 14:22 UTC. Time now 2014-Oct-21 15:18 UTC.
Position S 23°55' W 046°21'.

Length 294 m; ; draft 13.7 m.

Type: Ship (hazmat cat A). MMSI: 636091270.

Date/timePositionNaut miles runAvg speedWind from/ knotsBaromVisibWave heightAir tempDewpointWater temp
2014-Oct-21 14:22S 23°55' W 046°21'0 0.0
2014-Oct-21 13:28S 23°55' W 046°21'0 0.0
2014-Oct-21 12:22S 23°55' W 046°21'0 0.0
2014-Oct-21 11:07S 23°55' W 046°21'0 0.0
2014-Oct-21 10:13S 23°55' W 046°21'0 0.0
2014-Oct-21 09:22S 23°55' W 046°21'0 0.0
2014-Oct-21 08:28S 23°55' W 046°21'0 0.0
2014-Oct-21 06:22S 23°55' W 046°21'0 0.0
2014-Oct-21 05:31S 23°55' W 046°21'0 0.0
2014-Oct-21 04:10S 23°55' W 046°21'0 0.0
2014-Oct-21 03:28S 23°55' W 046°21'0 0.0
2014-Oct-21 00:28S 23°55' W 046°21'0 0.0
2014-Oct-20 22:10S 23°55' W 046°21'1 2.3
2014-Oct-20 21:33S 23°56' W 046°20'6 5.5
2014-Oct-20 20:33S 24°01' W 046°21'9 9.6
2014-Oct-20 19:33S 24°10' W 046°24'9 1.7
2014-Oct-20 14:16S 24°19' W 046°22'4 0.5
2014-Oct-20 07:06S 24°23' W 046°23'32412.9
2014-Oct-19 06:00S 22°24' W 040°54'46719.4 050 / 201012.0 5.4 1.023.021.5
2014-Oct-18 06:00S 15°30' W 037°06'43218.0 080 / 161016.010.8 1.025.023.5
2014-Oct-17 06:00S 08°48' W 034°24'71715.2 130 / 171015.0 5.4 2.024.021.0
2014-Oct-15 07:00N 01°06' W 041°06'   120 / 141013.0 5.4 1.524.021.0

Dump ship's entire track history